createdAt,value
2023-01-19T00:02:43.432Z,99528.78
2023-01-19T00:10:15.330Z,99536.50
2023-01-19T00:17:47.061Z,99547.75
2023-01-19T00:25:18.830Z,99552.13
2023-01-19T00:32:50.677Z,99562.56
2023-01-19T00:40:22.452Z,99565.63
2023-01-19T00:47:59.870Z,99573.34
2023-01-19T00:55:32.630Z,99578.00
2023-01-19T01:03:04.953Z,99580.75
2023-01-19T01:10:36.903Z,99598.31
2023-01-19T01:18:08.681Z,99600.53
2023-01-19T01:25:40.384Z,99595.06
2023-01-19T01:33:12.142Z,99601.66
2023-01-19T01:40:43.949Z,99584.75
2023-01-19T01:48:27.949Z,99611.28
2023-01-19T01:55:59.726Z,99610.00
2023-01-19T02:03:33.098Z,99610.00
2023-01-19T02:11:23.241Z,99598.56
2023-01-19T02:18:55.005Z,99604.03
2023-01-19T02:26:29.697Z,99599.66
2023-01-19T02:34:01.833Z,99606.28
2023-01-19T02:41:38.961Z,99605.44
2023-01-19T02:49:10.796Z,99609.03
2023-01-19T02:57:21.678Z,99597.25
2023-01-19T03:05:21.841Z,99595.91
2023-01-19T03:13:19.467Z,99600.59
2023-01-19T03:20:53.518Z,99600.59
2023-01-19T03:28:25.285Z,99603.63
2023-01-19T03:36:08.132Z,99610.22
2023-01-19T03:43:39.979Z,99605.88
2023-01-19T03:51:11.923Z,99615.22
2023-01-19T03:58:43.756Z,99625.34
2023-01-19T04:06:15.554Z,99628.38
2023-01-19T04:13:47.883Z,99621.28
2023-01-19T04:21:20.349Z,99619.06
2023-01-19T04:28:52.117Z,99619.06
2023-01-19T04:36:23.892Z,99628.38
2023-01-19T04:43:55.652Z,99629.19
2023-01-19T04:51:28.645Z,99621.28
2023-01-19T04:59:00.383Z,99622.72
2023-01-19T05:06:32.588Z,99623.53
2023-01-19T05:14:04.347Z,99635.59
2023-01-19T05:21:36.142Z,99633.59
2023-01-19T05:29:08.254Z,99640.63
2023-01-19T05:36:40.486Z,99641.81
2023-01-19T05:44:12.528Z,99641.19
2023-01-19T05:51:45.512Z,99642.81
2023-01-19T05:59:23.851Z,99660.84
2023-01-19T06:06:55.634Z,99676.84
2023-01-19T06:14:27.407Z,99675.56
2023-01-19T06:21:59.622Z,99681.25
2023-01-19T06:29:31.390Z,99676.59
2023-01-19T06:37:03.913Z,99683.06
2023-01-19T06:44:35.712Z,99676.97
2023-01-19T06:52:11.202Z,99683.28
2023-01-19T06:59:42.991Z,99687.00
2023-01-19T07:07:16.202Z,99688.31
2023-01-19T07:14:49.381Z,99700.56
2023-01-19T07:22:21.113Z,99709.56
2023-01-19T07:29:52.931Z,99712.31
2023-01-19T07:37:24.684Z,99716.34
2023-01-19T07:44:56.569Z,99735.53
2023-01-19T07:52:28.319Z,99722.31
2023-01-19T08:00:00.126Z,99729.41
2023-01-19T08:07:33.691Z,99742.00
2023-01-19T08:15:06.691Z,99751.50
2023-01-19T08:22:38.796Z,99753.09
2023-01-19T08:30:11.325Z,99752.31
2023-01-19T08:37:43.062Z,99765.50
2023-01-19T08:45:14.849Z,99767.75
2023-01-19T08:52:46.585Z,99767.44
2023-01-19T09:00:19.109Z,99765.00
2023-01-19T09:07:51.718Z,99769.38
2023-01-19T09:15:23.553Z,99774.84
2023-01-19T09:22:58.408Z,99778.06
2023-01-19T09:30:30.355Z,99790.63
2023-01-19T09:38:02.577Z,99789.00
2023-01-19T09:45:51.892Z,99796.91
2023-01-19T09:53:51.385Z,99773.72
2023-01-19T10:01:34.610Z,99775.31
2023-01-19T10:09:15.828Z,99773.53
2023-01-19T10:16:50.608Z,99772.59
2023-01-19T10:24:40.047Z,99768.09
2023-01-19T10:32:19.973Z,99761.03
2023-01-19T10:40:11.882Z,99760.88
2023-01-19T10:47:43.694Z,99752.69
2023-01-19T10:55:29.317Z,99743.34
2023-01-19T11:03:01.676Z,99744.47
2023-01-19T11:10:33.845Z,99737.88
2023-01-19T11:18:05.667Z,99731.91
2023-01-19T11:25:37.415Z,99726.91
2023-01-19T11:33:26.498Z,99738.66
2023-01-19T11:40:59.025Z,99717.59
2023-01-19T11:48:35.919Z,99719.69
2023-01-19T11:56:10.580Z,99716.97
2023-01-19T12:03:58.023Z,99717.75
2023-01-19T12:11:42.996Z,99728.41
2023-01-19T12:19:21.207Z,99721.81
2023-01-19T12:27:00.864Z,99716.31
2023-01-19T12:34:41.423Z,99724.22
2023-01-19T12:42:15.148Z,99739.84
2023-01-19T12:49:57.205Z,99732.16
2023-01-19T12:57:55.824Z,99743.91
2023-01-19T13:05:32.501Z,99736.00
2023-01-19T13:13:22.700Z,99736.81
2023-01-19T13:20:57.212Z,99743.09
2023-01-19T13:28:42.384Z,99745.34
2023-01-19T13:36:20.824Z,99757.41
2023-01-19T13:44:00.166Z,99765.63
2023-01-19T13:51:31.925Z,99773.50
2023-01-19T13:59:12.680Z,99775.97
2023-01-19T14:06:49.724Z,99781.72
2023-01-19T14:14:27.987Z,99783.88
2023-01-19T14:22:02.331Z,99794.00
2023-01-19T14:29:35.018Z,99804.34
2023-01-19T14:37:35.075Z,99809.31
2023-01-19T14:45:17.393Z,99810.44
2023-01-19T14:53:04.086Z,99808.84
2023-01-19T15:00:35.931Z,99809.13
2023-01-19T15:08:07.969Z,99804.28
2023-01-19T15:15:39.748Z,99818.47
2023-01-19T15:23:12.017Z,99813.78
2023-01-19T15:30:43.859Z,99820.69
2023-01-19T15:38:15.715Z,99821.81
2023-01-19T15:46:02.668Z,99831.47
2023-01-19T15:53:34.804Z,99829.84
2023-01-19T16:01:06.644Z,99836.44
2023-01-19T16:08:38.620Z,99831.75
2023-01-19T16:16:22.007Z,99818.06
2023-01-19T16:23:53.907Z,99837.25
2023-01-19T16:31:25.966Z,99834.81
2023-01-19T16:39:05.839Z,99836.13
2023-01-19T16:46:39.934Z,99844.34
2023-01-19T16:54:13.568Z,99853.88
2023-01-19T17:01:45.766Z,99855.50
2023-01-19T17:09:17.810Z,99861.78
2023-01-19T17:16:49.786Z,99847.75
2023-01-19T17:24:21.605Z,99857.63
2023-01-19T17:31:53.586Z,99871.31
2023-01-19T17:39:25.359Z,99863.88
2023-01-19T17:46:59.860Z,99879.03
2023-01-19T17:54:31.720Z,99888.03
2023-01-19T18:02:03.524Z,99898.69
2023-01-19T18:09:35.256Z,99892.41
2023-01-19T18:17:07.048Z,99900.63
2023-01-19T18:24:38.799Z,99892.72
2023-01-19T18:32:10.626Z,99904.78
2023-01-19T18:39:42.465Z,99911.91
2023-01-19T18:47:14.278Z,99910.25
2023-01-19T18:54:48.194Z,99920.59
2023-01-19T19:02:20.057Z,99927.69
2023-01-19T19:09:51.867Z,99928.19
2023-01-19T19:17:23.585Z,99936.41
2023-01-19T19:24:55.291Z,99947.56
2023-01-19T19:32:27.016Z,99963.69
2023-01-19T19:39:59.909Z,99968.84
2023-01-19T19:47:31.883Z,99974.63
2023-01-19T19:55:03.975Z,99982.06
2023-01-19T20:02:35.835Z,99984.47
2023-01-19T20:10:08.156Z,99993.19
2023-01-19T20:17:39.905Z,99997.06
2023-01-19T20:25:11.628Z,100006.59
2023-01-19T20:32:43.370Z,100001.13
2023-01-19T20:40:15.548Z,100024.63
2023-01-19T20:47:47.342Z,100031.25
2023-01-19T20:55:19.239Z,100036.22
2023-01-19T21:02:51.401Z,100039.25
2023-01-19T21:10:23.387Z,100052.16
2023-01-19T21:17:57.389Z,100063.41
2023-01-19T21:25:29.199Z,100073.25
2023-01-19T21:33:02.173Z,100094.03
2023-01-19T21:40:36.684Z,100088.34
2023-01-19T21:48:08.931Z,100097.88
2023-01-19T21:55:47.033Z,100103.38
2023-01-19T22:03:18.911Z,100117.06
2023-01-19T22:10:51.104Z,100125.91
2023-01-19T22:18:22.935Z,100133.09
2023-01-19T22:25:54.719Z,100144.94
2023-01-19T22:33:27.875Z,100159.25
2023-01-19T22:40:59.644Z,100160.97
2023-01-19T22:48:31.745Z,100160.16
2023-01-19T22:56:23.740Z,100165.13
2023-01-19T23:03:56.569Z,100172.53
2023-01-19T23:11:39.248Z,100177.78
2023-01-19T23:19:11.528Z,100178.09
2023-01-19T23:26:43.272Z,100187.94
2023-01-19T23:34:15.470Z,100194.81
2023-01-19T23:41:47.242Z,100203.56
2023-01-19T23:49:19.012Z,100207.41
2023-01-19T23:56:50.769Z,100197.88
